KOCW/OCW METAR and TAF weather

Enter ICAO airport designator
Station Type Date Time Source
KOCW METAR 2019/12/05 15:35 UTC NOAA

KOCW 051535Z AUTO 31009G14KT 10SM CLR 11/M04 A3007 RMK AO2 T01071037


Station Type Date Time Source
KOCW Decoded METAR 2019/12/05 15:35 UTC NOAA

Washington, Warren Field Airport, NC, United States (KOCW) 35-34-14N 077-02-59W
Dec 05, 2019 - 10:35 AM EST / 2019.12.05 1535 UTC
Wind: from the NW (310 degrees) at 10 MPH (9 KT) gusting to 16 MPH (14 KT):0
Visibility: 10 mile(s):0
Sky conditions: clear
Temperature: 51.3 F (10.7 C)
Dew Point: 25.3 F (-3.7 C)
Relative Humidity: 36%
Pressure (altimeter): 30.07 in. Hg (1018 hPa)
ob: KOCW 051535Z AUTO 31009G14KT 10SM CLR 11/M04 A3007 RMK AO2 T01071037
cycle: 15

Station Type Date Time Source
KOCW TAF UTC NOAA

Error!

Example: see airport list